Wetterdaten: Mittwoch, 12.06.2013
Datum Zeit Temperatur Luftfeuchte Luftdruck Regen Wind Richtung Richtung Taupunkt Windchill Windben
12.06.2013 00:00 10,5 C 95 % 1022,1 hPa 0,0 l/m 0,0 km/h (0 Bft) SO 135 9,7 C 10,6 C 0,0 km/h (0 Bft)
12.06.2013 00:05 10,6 C 95 % 1022,1 hPa 0,0 l/m 1,1 km/h (1 Bft) S-SO 157 9,8 C 10,6 C 1,9 km/h (1 Bft)
12.06.2013 00:10 10,6 C 95 % 1022,1 hPa 0,0 l/m 1,3 km/h (1 Bft) N-NO 22 9,8 C 10,6 C 0,0 km/h (0 Bft)
12.06.2013 00:15 10,5 C 95 % 1022,1 hPa 0,0 l/m 0,5 km/h (0 Bft) N-NO 22 9,7 C 10,6 C 4,5 km/h (1 Bft)
12.06.2013 00:20 10,6 C 95 % 1022,0 hPa 0,0 l/m 1,9 km/h (1 Bft) NO 45 9,8 C 10,5 C 8,0 km/h (2 Bft)
12.06.2013 00:25 10,5 C 95 % 1022,0 hPa 0,0 l/m 3,1 km/h (1 Bft) O-NO 67 9,7 C 10,6 C 1,6 km/h (1 Bft)
12.06.2013 00:30 10,5 C 95 % 1022,0 hPa 0,0 l/m 2,1 km/h (1 Bft) NO 45 9,7 C 10,5 C 8,0 km/h (2 Bft)
12.06.2013 00:35 10,5 C 95 % 1022,0 hPa 0,0 l/m 0,3 km/h (0 Bft) O-NO 67 9,7 C 10,4 C 0,0 km/h (0 Bft)
12.06.2013 00:40 10,5 C 95 % 1022,1 hPa 0,0 l/m 0,0 km/h (0 Bft) NO 45 9,7 C 10,4 C 0,0 km/h (0 Bft)
12.06.2013 00:45 10,4 C 95 % 1022,1 hPa 0,0 l/m 0,0 km/h (0 Bft) NO 45 9,6 C 10,4 C 0,0 km/h (0 Bft)
12.06.2013 00:50 10,4 C 95 % 1022,1 hPa 0,0 l/m 0,3 km/h (0 Bft) S 180 9,6 C 10,4 C 2,9 km/h (1 Bft)
12.06.2013 00:55 10,4 C 95 % 1022,1 hPa 0,0 l/m 0,8 km/h (0 Bft) O-SO 112 9,6 C 10,4 C 0,0 km/h (0 Bft)
12.06.2013 01:00 10,4 C 95 % 1022,0 hPa 0,0 l/m 0,6 km/h (0 Bft) O 90 9,6 C 10,4 C 0,0 km/h (0 Bft)
12.06.2013 01:05 10,4 C 95 % 1022,0 hPa 0,0 l/m 0,3 km/h (0 Bft) NO 45 9,6 C 10,4 C 0,0 km/h (0 Bft)
12.06.2013 01:10 10,4 C 95 % 1022,0 hPa 0,0 l/m 0,5 km/h (0 Bft) O 90 9,6 C 10,4 C 0,0 km/h (0 Bft)
12.06.2013 01:15 10,4 C 95 % 1022,0 hPa 0,0 l/m 0,8 km/h (0 Bft) SO 135 9,6 C 10,4 C 2,4 km/h (1 Bft)
12.06.2013 01:20 10,4 C 95 % 1022,2 hPa 0,0 l/m 0,6 km/h (0 Bft) N-NO 22 9,6 C 10,4 C 0,0 km/h (0 Bft)
12.06.2013 01:25 10,4 C 95 % 1022,2 hPa 0,0 l/m 0,6 km/h (0 Bft) W-SW 247 9,6 C 10,4 C 2,6 km/h (1 Bft)
12.06.2013 01:30 10,4 C 95 % 1022,2 hPa 0,0 l/m 1,0 km/h (0 Bft) NO 45 9,6 C 10,4 C 1,8 km/h (1 Bft)
12.06.2013 01:35 10,4 C 95 % 1022,2 hPa 0,0 l/m 1,1 km/h (1 Bft) NO 45 9,6 C 10,4 C 1,9 km/h (1 Bft)
12.06.2013 01:40 10,5 C 95 % 1022,2 hPa 0,0 l/m 1,3 km/h (1 Bft) SO 135 9,7 C 10,4 C 3,7 km/h (1 Bft)
12.06.2013 01:45 10,5 C 95 % 1022,2 hPa 0,0 l/m 1,4 km/h (1 Bft) S 180 9,7 C 10,4 C 1,6 km/h (1 Bft)
12.06.2013 01:50 10,4 C 95 % 1022,2 hPa 0,0 l/m 1,4 km/h (1 Bft) NO 45 9,6 C 10,4 C 2,7 km/h (1 Bft)
12.06.2013 01:55 10,3 C 95 % 1022,2 hPa 0,0 l/m 0,8 km/h (0 Bft) NO 45 9,5 C 10,3 C 0,0 km/h (0 Bft)
12.06.2013 02:00 10,3 C 95 % 1022,2 hPa 0,0 l/m 0,5 km/h (0 Bft) O-SO 112 9,5 C 10,3 C 0,0 km/h (0 Bft)
12.06.2013 02:05 10,3 C 95 % 1022,2 hPa 0,0 l/m 1,0 km/h (0 Bft) S 180 9,5 C 10,2 C 2,6 km/h (1 Bft)
12.06.2013 02:10 10,2 C 95 % 1022,2 hPa 0,0 l/m 1,1 km/h (1 Bft) NO 45 9,4 C 10,2 C 0,0 km/h (0 Bft)
12.06.2013 02:15 10,2 C 95 % 1022,2 hPa 0,0 l/m 0,6 km/h (0 Bft) O-NO 67 9,4 C 10,2 C 0,0 km/h (0 Bft)
12.06.2013 02:20 10,1 C 95 % 1022,2 hPa 0,0 l/m 0,2 km/h (0 Bft) O-NO 67 9,3 C 10,1 C 0,0 km/h (0 Bft)
12.06.2013 02:25 10,0 C 96 % 1022,2 hPa 0,0 l/m 0,2 km/h (0 Bft) W 270 9,4 C 10,0 C 0,0 km/h (0 Bft)
12.06.2013 02:30 9,9 C 96 % 1022,2 hPa 0,0 l/m 0,3 km/h (0 Bft) W 270 9,3 C 10,0 C 2,3 km/h (1 Bft)
12.06.2013 02:35 9,8 C 96 % 1022,2 hPa 0,0 l/m 0,3 km/h (0 Bft) W-SW 247 9,2 C 9,9 C 0,0 km/h (0 Bft)
12.06.2013 02:40 9,9 C 96 % 1022,4 hPa 0,0 l/m 0,5 km/h (0 Bft) NO 45 9,3 C 9,8 C 0,0 km/h (0 Bft)
12.06.2013 02:45 9,9 C 96 % 1022,4 hPa 0,0 l/m 0,5 km/h (0 Bft) NO 45 9,3 C 9,8 C 1,6 km/h (1 Bft)
12.06.2013 02:50 9,8 C 96 % 1022,4 hPa 0,0 l/m 0,6 km/h (0 Bft) O-SO 112 9,2 C 9,8 C 0,0 km/h (0 Bft)
12.06.2013 02:55 9,9 C 96 % 1022,4 hPa 0,0 l/m 1,4 km/h (1 Bft) O 90 9,3 C 9,8 C 4,3 km/h (1 Bft)
12.06.2013 03:00 9,9 C 96 % 1022,4 hPa 0,0 l/m 2,1 km/h (1 Bft) NO 45 9,3 C 9,9 C 3,9 km/h (1 Bft)
12.06.2013 03:05 9,9 C 96 % 1022,4 hPa 0,0 l/m 2,3 km/h (1 Bft) NO 45 9,3 C 9,9 C 3,2 km/h (1 Bft)
12.06.2013 03:10 9,8 C 96 % 1022,4 hPa 0,0 l/m 1,4 km/h (1 Bft) S 180 9,2 C 9,9 C 0,0 km/h (0 Bft)
12.06.2013 03:15 9,8 C 96 % 1022,4 hPa 0,0 l/m 0,6 km/h (0 Bft) NO 45 9,2 C 9,7 C 1,6 km/h (1 Bft)
12.06.2013 03:20 9,7 C 96 % 1022,2 hPa 0,0 l/m 0,3 km/h (0 Bft) SO 135 9,1 C 9,7 C 0,0 km/h (0 Bft)
12.06.2013 03:25 9,8 C 96 % 1022,2 hPa 0,0 l/m 0,2 km/h (0 Bft) NO 45 9,2 C 9,6 C 0,0 km/h (0 Bft)
12.06.2013 03:30 9,7 C 96 % 1022,2 hPa 0,0 l/m 0,2 km/h (0 Bft) O-NO 67 9,1 C 9,6 C 0,0 km/h (0 Bft)
12.06.2013 03:35 9,7 C 96 % 1022,2 hPa 0,0 l/m 0,2 km/h (0 Bft) O-NO 67 9,1 C 9,6 C 0,0 km/h (0 Bft)
12.06.2013 03:40 9,7 C 96 % 1022,4 hPa 0,0 l/m 0,2 km/h (0 Bft) S-SO 157 9,1 C 9,6 C 0,0 km/h (0 Bft)
12.06.2013 03:45 9,7 C 96 % 1022,4 hPa 0,0 l/m 0,5 km/h (0 Bft) S 180 9,1 C 9,6 C 0,0 km/h (0 Bft)
12.06.2013 03:50 9,8 C 96 % 1022,4 hPa 0,0 l/m 0,5 km/h (0 Bft) NO 45 9,2 C 9,7 C 0,0 km/h (0 Bft)
12.06.2013 03:55 9,8 C 96 % 1022,4 hPa 0,0 l/m 0,0 km/h (0 Bft) NW 315 9,2 C 9,7 C 2,4 km/h (1 Bft)
12.06.2013 04:00 9,8 C 96 % 1022,4 hPa 0,0 l/m 0,3 km/h (0 Bft) O-SO 112 9,2 C 9,7 C 0,0 km/h (0 Bft)
12.06.2013 04:05 9,8 C 96 % 1022,4 hPa 0,0 l/m 0,6 km/h (0 Bft) O 90 9,2 C 9,7 C 0,0 km/h (0 Bft)
12.06.2013 04:10 9,7 C 96 % 1022,4 hPa 0,0 l/m 0,5 km/h (0 Bft) SO 135 9,1 C 9,7 C 1,9 km/h (1 Bft)
12.06.2013 04:15 9,5 C 96 % 1022,4 hPa 0,0 l/m 1,0 km/h (0 Bft) N-NO 22 8,9 C 9,5 C 4,5 km/h (1 Bft)
12.06.2013 04:20 9,5 C 96 % 1022,3 hPa 0,0 l/m 1,4 km/h (1 Bft) NO 45 8,9 C 9,5 C 2,1 km/h (1 Bft)
12.06.2013 04:25 9,3 C 96 % 1022,3 hPa 0,0 l/m 1,0 km/h (0 Bft) SW 225 8,7 C 9,3 C 0,0 km/h (0 Bft)
12.06.2013 04:30 9,1 C 96 % 1022,3 hPa 0,0 l/m 0,2 km/h (0 Bft) S 180 8,5 C 9,2 C 0,0 km/h (0 Bft)
12.06.2013 04:35 8,8 C 96 % 1022,3 hPa 0,0 l/m 0,2 km/h (0 Bft) O-SO 112 8,2 C 8,9 C 0,0 km/h (0 Bft)
12.06.2013 04:40 8,9 C 96 % 1022,4 hPa 0,0 l/m 0,5 km/h (0 Bft) NO 45 8,3 C 8,7 C 1,9 km/h (1 Bft)
12.06.2013 04:45 8,6 C 96 % 1022,4 hPa 0,0 l/m 0,3 km/h (0 Bft) N-NO 22 8,0 C 8,6 C 0,0 km/h (0 Bft)
12.06.2013 04:50 8,4 C 96 % 1022,4 hPa 0,0 l/m 0,2 km/h (0 Bft) O 90 7,8 C 8,3 C 0,0 km/h (0 Bft)
12.06.2013 04:55 8,2 C 96 % 1022,4 hPa 0,0 l/m 0,2 km/h (0 Bft) NO 45 7,6 C 8,2 C 0,0 km/h (0 Bft)
12.06.2013 05:00 8,2 C 96 % 1022,4 hPa 0,0 l/m 0,5 km/h (0 Bft) O 90 7,6 C 8,1 C 2,3 km/h (1 Bft)
12.06.2013 05:05 8,3 C 96 % 1022,4 hPa 0,0 l/m 0,6 km/h (0 Bft) SO 135 7,7 C 8,0 C 0,0 km/h (0 Bft)
12.06.2013 05:10 8,1 C 96 % 1022,4 hPa 0,0 l/m 1,3 km/h (1 Bft) NO 45 7,5 C 8,1 C 2,1 km/h (1 Bft)
12.06.2013 05:15 8,2 C 96 % 1022,4 hPa 0,0 l/m 1,3 km/h (1 Bft) O-NO 67 7,6 C 8,0 C 1,9 km/h (1 Bft)
12.06.2013 05:20 8,2 C 96 % 1022,4 hPa 0,0 l/m 1,1 km/h (1 Bft) O 90 7,6 C 8,0 C 2,6 km/h (1 Bft)
12.06.2013 05:25 8,4 C 96 % 1022,4 hPa 0,0 l/m 1,8 km/h (1 Bft) O 90 7,8 C 8,2 C 0,0 km/h (0 Bft)
12.06.2013 05:30 8,2 C 96 % 1022,4 hPa 0,0 l/m 1,8 km/h (1 Bft) O 90 7,6 C 8,2 C 1,6 km/h (1 Bft)
12.06.2013 05:35 8,1 C 96 % 1022,4 hPa 0,0 l/m 0,5 km/h (0 Bft) NO 45 7,5 C 8,1 C 2,4 km/h (1 Bft)
12.06.2013 05:40 8,1 C 96 % 1022,4 hPa 0,0 l/m 0,2 km/h (0 Bft) S 180 7,5 C 8,1 C 0,0 km/h (0 Bft)
12.06.2013 05:45 8,3 C 96 % 1022,4 hPa 0,0 l/m 0,2 km/h (0 Bft) NO 45 7,7 C 8,2 C 0,0 km/h (0 Bft)
12.06.2013 05:50 8,3 C 96 % 1022,4 hPa 0,0 l/m 0,2 km/h (0 Bft) NO 45 7,7 C 8,3 C 0,0 km/h (0 Bft)
12.06.2013 05:55 8,7 C 96 % 1022,4 hPa 0,0 l/m 0,5 km/h (0 Bft) NO 45 8,1 C 8,9 C 0,0 km/h (0 Bft)
12.06.2013 06:00 9,3 C 96 % 1022,6 hPa 0,0 l/m 0,6 km/h (0 Bft) O-SO 112 8,7 C 9,4 C 3,4 km/h (1 Bft)
12.06.2013 06:05 10,3 C 95 % 1022,6 hPa 0,0 l/m 0,8 km/h (0 Bft) N-NO 22 9,5 C 10,0 C 3,7 km/h (1 Bft)
12.06.2013 06:10 10,6 C 95 % 1022,6 hPa 0,0 l/m 0,8 km/h (0 Bft) N-NO 22 9,8 C 10,5 C 0,0 km/h (0 Bft)
12.06.2013 06:15 11,2 C 95 % 1022,6 hPa 0,0 l/m 0,5 km/h (0 Bft) S-SW 202 10,4 C 11,2 C 1,6 km/h (1 Bft)
12.06.2013 06:20 11,4 C 95 % 1022,8 hPa 0,0 l/m 0,0 km/h (0 Bft) W-SW 247 10,6 C 11,6 C 0,0 km/h (0 Bft)
12.06.2013 06:25 12,2 C 95 % 1022,8 hPa 0,0 l/m 0,0 km/h (0 Bft) W-SW 247 11,4 C 12,3 C 0,0 km/h (0 Bft)
12.06.2013 06:30 12,4 C 94 % 1022,8 hPa 0,0 l/m 0,2 km/h (0 Bft) NW 315 11,5 C 12,6 C 0,0 km/h (0 Bft)
12.06.2013 06:35 13,0 C 93 % 1022,8 hPa 0,0 l/m 0,6 km/h (0 Bft) S 180 11,9 C 13,1 C 2,7 km/h (1 Bft)
12.06.2013 06:40 13,1 C 93 % 1022,8 hPa 0,0 l/m 0,6 km/h (0 Bft) SW 225 12,0 C 13,5 C 0,0 km/h (0 Bft)
12.06.2013 06:45 13,6 C 91 % 1022,8 hPa 0,0 l/m 0,5 km/h (0 Bft) O 90 12,2 C 14,0 C 1,9 km/h (1 Bft)
12.06.2013 06:50 13,9 C 90 % 1022,8 hPa 0,0 l/m 0,2 km/h (0 Bft) O-NO 67 12,3 C 14,5 C 0,0 km/h (0 Bft)
12.06.2013 06:55 14,6 C 88 % 1022,8 hPa 0,0 l/m 0,5 km/h (0 Bft) S-SW 202 12,6 C 15,1 C 3,5 km/h (1 Bft)
12.06.2013 07:00 15,2 C 86 % 1022,9 hPa 0,0 l/m 1,0 km/h (0 Bft) O 90 12,9 C 15,3 C 1,6 km/h (1 Bft)
12.06.2013 07:05 15,0 C 83 % 1022,9 hPa 0,0 l/m 1,1 km/h (1 Bft) SO 135 12,1 C 15,8 C 0,0 km/h (0 Bft)
12.06.2013 07:10 15,2 C 81 % 1022,9 hPa 0,0 l/m 0,6 km/h (0 Bft) NO 45 12,0 C 16,4 C 0,0 km/h (0 Bft)
12.06.2013 07:15 15,3 C 79 % 1022,9 hPa 0,0 l/m 0,5 km/h (0 Bft) NO 45 11,7 C 16,8 C 0,0 km/h (0 Bft)
12.06.2013 07:20 15,9 C 81 % 1023,1 hPa 0,0 l/m 0,6 km/h (0 Bft) O 90 12,6 C 17,2 C 0,0 km/h (0 Bft)
12.06.2013 07:25 16,8 C 81 % 1023,1 hPa 0,0 l/m 0,2 km/h (0 Bft) O-SO 112 13,5 C 17,9 C 0,0 km/h (0 Bft)
12.06.2013 07:30 16,6 C 78 % 1023,1 hPa 0,0 l/m 0,3 km/h (0 Bft) NO 45 12,7 C 18,3 C 0,0 km/h (0 Bft)
12.06.2013 07:35 17,1 C 79 % 1023,1 hPa 0,0 l/m 0,8 km/h (0 Bft) N-NO 22 13,4 C 18,5 C 0,0 km/h (0 Bft)
12.06.2013 07:40 17,7 C 78 % 1023,0 hPa 0,0 l/m 0,8 km/h (0 Bft) SO 135 13,8 C 18,8 C 2,3 km/h (1 Bft)
12.06.2013 07:45 18,1 C 78 % 1023,0 hPa 0,0 l/m 0,5 km/h (0 Bft) O-SO 112 14,2 C 19,4 C 1,8 km/h (1 Bft)
12.06.2013 07:50 18,4 C 77 % 1023,0 hPa 0,0 l/m 0,5 km/h (0 Bft) N-NO 22 14,3 C 20,0 C 0,0 km/h (0 Bft)
12.06.2013 07:55 18,7 C 76 % 1023,0 hPa 0,0 l/m 0,3 km/h (0 Bft) N-NO 22 14,4 C 20,4 C 1,6 km/h (1 Bft)
12.06.2013 08:00 19,0 C 75 % 1023,2 hPa 0,0 l/m 0,2 km/h (0 Bft) NO 45 14,5 C 20,7 C 2,3 km/h (1 Bft)
12.06.2013 08:05 19,3 C 73 % 1023,2 hPa 0,0 l/m 0,6 km/h (0 Bft) N-NO 22 14,3 C 20,9 C 1,9 km/h (1 Bft)
12.06.2013 08:10 19,6 C 76 % 1023,2 hPa 0,0 l/m 0,8 km/h (0 Bft) N-NO 22 15,2 C 21,0 C 3,2 km/h (1 Bft)
12.06.2013 08:15 20,1 C 74 % 1023,2 hPa 0,0 l/m 0,6 km/h (0 Bft) S 180 15,3 C 21,3 C 2,3 km/h (1 Bft)
12.06.2013 08:20 19,6 C 71 % 1023,4 hPa 0,0 l/m 0,6 km/h (0 Bft) S 180 14,2 C 21,6 C 0,0 km/h (0 Bft)
12.06.2013 08:25 20,1 C 73 % 1023,4 hPa 0,0 l/m 0,8 km/h (0 Bft) S-SW 202 15,1 C 22,0 C 1,8 km/h (1 Bft)
12.06.2013 08:30 20,7 C 75 % 1023,4 hPa 0,0 l/m 0,8 km/h (0 Bft) W-SW 247 16,1 C 22,1 C 0,0 km/h (0 Bft)
12.06.2013 08:35 20,6 C 62 % 1023,4 hPa 0,0 l/m 0,8 km/h (0 Bft) O-SO 112 13,1 C 22,5 C 3,9 km/h (1 Bft)
12.06.2013 08:40 20,8 C 67 % 1023,5 hPa 0,0 l/m 1,1 km/h (1 Bft) N 360 14,4 C 22,4 C 1,9 km/h (1 Bft)
12.06.2013 08:45 20,8 C 61 % 1023,5 hPa 0,0 l/m 1,8 km/h (1 Bft) N-NW 337 13,0 C 22,3 C 1,9 km/h (1 Bft)
12.06.2013 08:50 22,0 C 67 % 1023,5 hPa 0,0 l/m 1,1 km/h (1 Bft) NW 315 15,6 C 22,5 C 3,5 km/h (1 Bft)
12.06.2013 08:55 21,7 C 58 % 1023,5 hPa 0,0 l/m 1,4 km/h (1 Bft) NW 315 13,1 C 22,2 C 0,0 km/h (0 Bft)
12.06.2013 09:00 21,1 C 49 % 1023,6 hPa 0,0 l/m 1,3 km/h (1 Bft) N-NO 22 10,0 C 22,6 C 0,0 km/h (0 Bft)
12.06.2013 09:05 22,3 C 54 % 1023,6 hPa 0,0 l/m 1,3 km/h (1 Bft) S 180 12,5 C 22,9 C 5,3 km/h (1 Bft)
12.06.2013 09:10 21,6 C 48 % 1023,6 hPa 0,0 l/m 2,1 km/h (1 Bft) S 180 10,1 C 22,7 C 2,1 km/h (1 Bft)
12.06.2013 09:15 21,5 C 56 % 1023,6 hPa 0,0 l/m 2,1 km/h (1 Bft) S 180 12,3 C 22,1 C 0,0 km/h (0 Bft)
12.06.2013 09:20 21,9 C 54 % 1024,0 hPa 0,0 l/m 1,8 km/h (1 Bft) W-SW 247 12,2 C 22,0 C 4,5 km/h (1 Bft)
12.06.2013 09:25 21,4 C 45 % 1024,0 hPa 0,0 l/m 2,7 km/h (1 Bft) N-NO 22 9,0 C 22,2 C 2,4 km/h (1 Bft)
12.06.2013 09:30 21,4 C 46 % 1024,0 hPa 0,0 l/m 2,9 km/h (1 Bft) NO 45 9,3 C 22,4 C 2,7 km/h (1 Bft)
12.06.2013 09:35 21,9 C 46 % 1024,0 hPa 0,0 l/m 2,7 km/h (1 Bft) W-NW 292 9,7 C 22,9 C 7,6 km/h (2 Bft)
12.06.2013 09:40 22,3 C 46 % 1024,6 hPa 0,0 l/m 3,5 km/h (1 Bft) W 270 10,1 C 22,6 C 3,5 km/h (1 Bft)
12.06.2013 09:45 22,8 C 44 % 1024,6 hPa 0,0 l/m 3,7 km/h (1 Bft) S-SW 202 9,9 C 23,2 C 1,6 km/h (1 Bft)
12.06.2013 09:50 22,1 C 45 % 1024,6 hPa 0,0 l/m 2,1 km/h (1 Bft) W 270 9,6 C 23,9 C 3,5 km/h (1 Bft)
12.06.2013 09:55 20,9 C 46 % 1024,6 hPa 0,0 l/m 2,3 km/h (1 Bft) S-SO 157 8,8 C 23,1 C 3,5 km/h (1 Bft)
12.06.2013 10:00 22,0 C 45 % 1024,6 hPa 0,0 l/m 2,6 km/h (1 Bft) W 270 9,5 C 23,1 C 6,0 km/h (2 Bft)
12.06.2013 10:05 21,2 C 47 % 1024,6 hPa 0,0 l/m 2,9 km/h (1 Bft) W 270 9,4 C 22,9 C 5,3 km/h (1 Bft)
12.06.2013 10:10 21,2 C 48 % 1024,6 hPa 0,0 l/m 2,9 km/h (1 Bft) O-NO 67 9,7 C 22,6 C 3,2 km/h (1 Bft)
12.06.2013 10:15 20,8 C 45 % 1024,6 hPa 0,0 l/m 2,3 km/h (1 Bft) W-SW 247 8,4 C 22,4 C 0,0 km/h (0 Bft)
12.06.2013 10:20 20,8 C 45 % 1024,8 hPa 0,0 l/m 1,8 km/h (1 Bft) W 270 8,4 C 23,0 C 3,1 km/h (1 Bft)
12.06.2013 10:25 20,3 C 46 % 1024,8 hPa 0,0 l/m 1,4 km/h (1 Bft) S 180 8,3 C 22,8 C 1,9 km/h (1 Bft)
12.06.2013 10:30 20,6 C 46 % 1024,8 hPa 0,0 l/m 2,1 km/h (1 Bft) W-SW 247 8,6 C 22,7 C 5,0 km/h (1 Bft)
12.06.2013 10:35 20,2 C 46 % 1024,8 hPa 0,0 l/m 2,3 km/h (1 Bft) W-NW 292 8,2 C 22,5 C 4,7 km/h (1 Bft)
12.06.2013 10:40 20,7 C 44 % 1024,8 hPa 0,0 l/m 2,3 km/h (1 Bft) W 270 8,0 C 22,5 C 4,2 km/h (1 Bft)
12.06.2013 10:45 20,7 C 46 % 1024,8 hPa 0,0 l/m 2,7 km/h (1 Bft) S-SW 202 8,7 C 22,6 C 3,5 km/h (1 Bft)
12.06.2013 10:50 20,9 C 47 % 1024,8 hPa 0,0 l/m 3,4 km/h (1 Bft) W-NW 292 9,2 C 22,3 C 8,4 km/h (2 Bft)
12.06.2013 10:55 21,0 C 47 % 1024,8 hPa 0,0 l/m 4,3 km/h (1 Bft) S-SO 157 9,3 C 22,2 C 5,3 km/h (1 Bft)
12.06.2013 11:00 21,0 C 46 % 1024,9 hPa 0,0 l/m 3,5 km/h (1 Bft) N-NO 22 8,9 C 22,1 C 8,5 km/h (2 Bft)
12.06.2013 11:05 21,5 C 43 % 1024,9 hPa 0,0 l/m 2,3 km/h (1 Bft) NO 45 8,4 C 23,3 C 6,1 km/h (2 Bft)
12.06.2013 11:10 20,3 C 44 % 1024,9 hPa 0,0 l/m 2,1 km/h (1 Bft) N-NW 337 7,6 C 23,5 C 2,6 km/h (1 Bft)
12.06.2013 11:15 20,4 C 47 % 1024,9 hPa 0,0 l/m 2,1 km/h (1 Bft) NO 45 8,7 C 23,4 C 2,7 km/h (1 Bft)
12.06.2013 11:20 20,9 C 44 % 1024,9 hPa 0,0 l/m 2,1 km/h (1 Bft) S-SW 202 8,2 C 23,3 C 3,7 km/h (1 Bft)
12.06.2013 11:25 20,5 C 43 % 1024,9 hPa 0,0 l/m 3,1 km/h (1 Bft) S-SW 202 7,5 C 22,8 C 4,5 km/h (1 Bft)
12.06.2013 11:30 20,9 C 41 % 1024,9 hPa 0,0 l/m 2,7 km/h (1 Bft) S 180 7,2 C 22,8 C 3,7 km/h (1 Bft)
12.06.2013 11:35 21,2 C 43 % 1024,9 hPa 0,0 l/m 2,6 km/h (1 Bft) SW 225 8,1 C 22,4 C 0,0 km/h (0 Bft)
12.06.2013 11:40 22,1 C 42 % 1024,9 hPa 0,0 l/m 1,8 km/h (1 Bft) W-NW 292 8,6 C 22,8 C 0,0 km/h (0 Bft)
12.06.2013 11:45 20,6 C 40 % 1024,9 hPa 0,0 l/m 1,9 km/h (1 Bft) W-NW 292 6,5 C 23,1 C 5,6 km/h (1 Bft)
12.06.2013 11:50 22,0 C 39 % 1024,9 hPa 0,0 l/m 2,9 km/h (1 Bft) W 270 7,4 C 22,5 C 3,4 km/h (1 Bft)
12.06.2013 11:55 23,3 C 39 % 1024,9 hPa 0,0 l/m 2,3 km/h (1 Bft) SW 225 8,6 C 23,6 C 3,2 km/h (1 Bft)
12.06.2013 12:00 23,6 C 38 % 1025,1 hPa 0,0 l/m 1,6 km/h (1 Bft) S-SO 157 8,4 C 24,3 C 2,4 km/h (1 Bft)
12.06.2013 12:05 22,4 C 37 % 1025,1 hPa 0,0 l/m 2,3 km/h (1 Bft) W-NW 292 7,0 C 24,7 C 9,7 km/h (2 Bft)
12.06.2013 12:10 22,4 C 36 % 1025,1 hPa 0,0 l/m 3,1 km/h (1 Bft) S 180 6,6 C 24,1 C 3,9 km/h (1 Bft)
12.06.2013 12:15 21,8 C 37 % 1025,1 hPa 0,0 l/m 4,0 km/h (1 Bft) W-NW 292 6,5 C 23,8 C 8,0 km/h (2 Bft)
12.06.2013 12:20 22,3 C 39 % 1025,0 hPa 0,0 l/m 2,7 km/h (1 Bft) N-NO 22 7,7 C 23,5 C 0,0 km/h (0 Bft)
12.06.2013 12:25 23,3 C 36 % 1025,0 hPa 0,0 l/m 2,4 km/h (1 Bft) W-SW 247 7,4 C 24,1 C 3,7 km/h (1 Bft)
12.06.2013 12:30 23,0 C 36 % 1025,0 hPa 0,0 l/m 2,7 km/h (1 Bft) W-SW 247 7,1 C 24,0 C 5,6 km/h (1 Bft)
12.06.2013 12:35 22,9 C 36 % 1025,0 hPa 0,0 l/m 4,0 km/h (1 Bft) W-SW 247 7,0 C 23,7 C 6,4 km/h (2 Bft)
12.06.2013 12:40 22,9 C 35 % 1025,0 hPa 0,0 l/m 4,5 km/h (1 Bft) SW 225 6,6 C 23,6 C 4,3 km/h (1 Bft)
12.06.2013 12:45 22,8 C 34 % 1025,0 hPa 0,0 l/m 4,2 km/h (1 Bft) S 180 6,1 C 23,8 C 4,8 km/h (1 Bft)
12.06.2013 12:50 23,0 C 32 % 1025,0 hPa 0,0 l/m 3,1 km/h (1 Bft) W-SW 247 5,4 C 24,2 C 3,5 km/h (1 Bft)
12.06.2013 12:55 22,6 C 33 % 1025,0 hPa 0,0 l/m 2,7 km/h (1 Bft) N 360 5,5 C 25,0 C 2,4 km/h (1 Bft)
12.06.2013 13:00 22,8 C 35 % 1025,1 hPa 0,0 l/m 2,4 km/h (1 Bft) W-NW 292 6,5 C 25,3 C 5,0 km/h (1 Bft)
12.06.2013 13:05 23,4 C 33 % 1025,1 hPa 0,0 l/m 2,3 km/h (1 Bft) W-NW 292 6,2 C 25,7 C 3,1 km/h (1 Bft)
12.06.2013 13:10 23,0 C 33 % 1025,1 hPa 0,0 l/m 2,4 km/h (1 Bft) W-SW 247 5,9 C 26,0 C 3,5 km/h (1 Bft)
12.06.2013 13:15 24,3 C 31 % 1025,1 hPa 0,0 l/m 2,7 km/h (1 Bft) W-SW 247 6,1 C 26,4 C 8,5 km/h (2 Bft)
12.06.2013 13:20 23,9 C 31 % 1025,1 hPa 0,0 l/m 4,0 km/h (1 Bft) N-NW 337 5,7 C 26,1 C 6,6 km/h (2 Bft)
12.06.2013 13:25 24,1 C 30 % 1025,1 hPa 0,0 l/m 4,3 km/h (1 Bft) N-NW 337 5,4 C 26,0 C 4,2 km/h (1 Bft)
12.06.2013 13:30 23,0 C 30 % 1025,1 hPa 0,0 l/m 3,5 km/h (1 Bft) W-NW 292 4,5 C 26,1 C 2,7 km/h (1 Bft)
12.06.2013 13:35 23,1 C 31 % 1025,1 hPa 0,0 l/m 4,2 km/h (1 Bft) SW 225 5,0 C 26,3 C 7,1 km/h (2 Bft)
12.06.2013 13:40 22,3 C 36 % 1025,1 hPa 0,0 l/m 4,2 km/h (1 Bft) S 180 6,5 C 25,2 C 3,5 km/h (1 Bft)
12.06.2013 13:45 21,1 C 38 % 1025,1 hPa 0,0 l/m 2,9 km/h (1 Bft) N-NW 337 6,2 C 24,5 C 1,8 km/h (1 Bft)
12.06.2013 13:50 21,5 C 39 % 1025,1 hPa 0,0 l/m 1,6 km/h (1 Bft) N-NO 22 7,0 C 24,6 C 1,6 km/h (1 Bft)
12.06.2013 13:55 21,0 C 41 % 1025,1 hPa 0,0 l/m 2,6 km/h (1 Bft) W-NW 292 7,2 C 24,2 C 2,4 km/h (1 Bft)
12.06.2013 14:00 20,9 C 41 % 1025,2 hPa 0,0 l/m 3,9 km/h (1 Bft) W-NW 292 7,2 C 23,4 C 3,9 km/h (1 Bft)
12.06.2013 14:05 22,3 C 38 % 1025,2 hPa 0,0 l/m 4,2 km/h (1 Bft) SO 135 7,3 C 23,6 C 7,1 km/h (2 Bft)
12.06.2013 14:10 21,8 C 38 % 1025,2 hPa 0,0 l/m 4,3 km/h (1 Bft) N-NW 337 6,8 C 24,4 C 6,4 km/h (2 Bft)
12.06.2013 14:15 21,5 C 36 % 1025,2 hPa 0,0 l/m 4,0 km/h (1 Bft) O 90 5,8 C 24,2 C 3,9 km/h (1 Bft)
12.06.2013 14:20 21,3 C 39 % 1025,0 hPa 0,0 l/m 3,1 km/h (1 Bft) N 360 6,8 C 24,4 C 3,7 km/h (1 Bft)
12.06.2013 14:25 20,4 C 41 % 1025,0 hPa 0,0 l/m 2,9 km/h (1 Bft) W-SW 247 6,7 C 23,7 C 9,0 km/h (2 Bft)
12.06.2013 14:30 20,0 C 41 % 1025,0 hPa 0,0 l/m 3,9 km/h (1 Bft) S-SW 202 6,3 C 22,5 C 10,9 km/h (2 Bft)
12.06.2013 14:35 20,6 C 41 % 1025,0 hPa 0,0 l/m 3,9 km/h (1 Bft) N-NO 22 6,9 C 22,0 C 4,3 km/h (1 Bft)
12.06.2013 14:40 21,9 C 41 % 1024,9 hPa 0,0 l/m 3,9 km/h (1 Bft) N 360 8,0 C 22,8 C 6,3 km/h (2 Bft)
12.06.2013 14:45 21,8 C 38 % 1024,9 hPa 0,0 l/m 5,0 km/h (1 Bft) W-NW 292 6,8 C 23,8 C 2,6 km/h (1 Bft)
12.06.2013 14:50 21,2 C 37 % 1024,9 hPa 0,0 l/m 3,9 km/h (1 Bft) N-NW 337 5,9 C 24,1 C 11,4 km/h (2 Bft)
12.06.2013 14:55 21,3 C 37 % 1024,9 hPa 0,0 l/m 2,9 km/h (1 Bft) S 180 6,0 C 23,7 C 3,9 km/h (1 Bft)
12.06.2013 15:00 21,6 C 38 % 1025,1 hPa 0,0 l/m 2,3 km/h (1 Bft) W-SW 247 6,7 C 23,9 C 0,0 km/h (0 Bft)
12.06.2013 15:05 22,5 C 37 % 1025,1 hPa 0,0 l/m 2,3 km/h (1 Bft) W-NW 292 7,1 C 24,4 C 2,9 km/h (1 Bft)
12.06.2013 15:10 22,5 C 36 % 1025,1 hPa 0,0 l/m 1,8 km/h (1 Bft) NO 45 6,7 C 24,9 C 0,0 km/h (0 Bft)
12.06.2013 15:15 22,8 C 36 % 1025,1 hPa 0,0 l/m 2,1 km/h (1 Bft) W-SW 247 6,9 C 25,9 C 5,3 km/h (1 Bft)
12.06.2013 15:20 22,2 C 36 % 1024,9 hPa 0,0 l/m 2,7 km/h (1 Bft) S-SW 202 6,4 C 25,5 C 2,4 km/h (1 Bft)
12.06.2013 15:25 21,9 C 37 % 1024,9 hPa 0,0 l/m 3,9 km/h (1 Bft) S-SO 157 6,5 C 24,9 C 4,5 km/h (1 Bft)
12.06.2013 15:30 22,3 C 35 % 1024,9 hPa 0,0 l/m 4,0 km/h (1 Bft) S 180 6,1 C 24,7 C 4,8 km/h (1 Bft)
12.06.2013 15:35 23,2 C 33 % 1024,9 hPa 0,0 l/m 4,0 km/h (1 Bft) W-NW 292 6,0 C 25,3 C 5,0 km/h (1 Bft)
12.06.2013 15:40 23,3 C 32 % 1024,6 hPa 0,0 l/m 3,4 km/h (1 Bft) S-SO 157 5,7 C 25,7 C 3,7 km/h (1 Bft)
12.06.2013 15:45 23,6 C 33 % 1024,6 hPa 0,0 l/m 2,1 km/h (1 Bft) N 360 6,4 C 26,5 C 0,0 km/h (0 Bft)
12.06.2013 15:50 23,9 C 33 % 1024,6 hPa 0,0 l/m 1,0 km/h (0 Bft) S-SW 202 6,6 C 27,6 C 0,0 km/h (0 Bft)
12.06.2013 15:55 23,1 C 33 % 1024,6 hPa 0,0 l/m 1,9 km/h (1 Bft) SO 135 5,9 C 27,5 C 3,5 km/h (1 Bft)
12.06.2013 16:00 22,9 C 33 % 1024,6 hPa 0,0 l/m 2,4 km/h (1 Bft) NO 45 5,8 C 27,5 C 2,7 km/h (1 Bft)
12.06.2013 16:05 23,6 C 33 % 1024,6 hPa 0,0 l/m 2,4 km/h (1 Bft) S-SW 202 6,4 C 27,9 C 6,1 km/h (2 Bft)
12.06.2013 16:10 23,2 C 32 % 1024,6 hPa 0,0 l/m 3,7 km/h (1 Bft) W-NW 292 5,6 C 27,2 C 6,9 km/h (2 Bft)
12.06.2013 16:15 23,6 C 32 % 1024,6 hPa 0,0 l/m 4,8 km/h (1 Bft) S-SW 202 5,9 C 26,6 C 6,1 km/h (2 Bft)
12.06.2013 16:20 22,8 C 33 % 1024,8 hPa 0,0 l/m 4,0 km/h (1 Bft) S 180 5,7 C 26,4 C 2,7 km/h (1 Bft)
12.06.2013 16:25 21,8 C 33 % 1024,8 hPa 0,0 l/m 3,1 km/h (1 Bft) NO 45 4,8 C 26,1 C 3,9 km/h (1 Bft)
12.06.2013 16:30 21,8 C 35 % 1024,8 hPa 0,0 l/m 1,9 km/h (1 Bft) W 270 5,7 C 26,6 C 0,0 km/h (0 Bft)
12.06.2013 16:35 22,6 C 35 % 1024,8 hPa 0,0 l/m 2,7 km/h (1 Bft) W-NW 292 6,4 C 26,6 C 3,7 km/h (1 Bft)
12.06.2013 16:40 22,3 C 34 % 1024,9 hPa 0,0 l/m 3,5 km/h (1 Bft) W-NW 292 5,7 C 26,7 C 4,5 km/h (1 Bft)
12.06.2013 16:45 20,6 C 35 % 1024,9 hPa 0,0 l/m 3,1 km/h (1 Bft) N-NW 337 4,6 C 25,3 C 3,1 km/h (1 Bft)
12.06.2013 16:50 21,0 C 35 % 1024,9 hPa 0,0 l/m 2,1 km/h (1 Bft) O 90 5,0 C 25,0 C 2,7 km/h (1 Bft)
12.06.2013 16:55 20,9 C 35 % 1024,9 hPa 0,0 l/m 1,1 km/h (1 Bft) W-NW 292 4,9 C 26,5 C 0,0 km/h (0 Bft)
12.06.2013 17:00 20,8 C 36 % 1024,4 hPa 0,0 l/m 1,0 km/h (0 Bft) O-NO 67 5,2 C 27,3 C 2,1 km/h (1 Bft)
12.06.2013 17:05 20,7 C 35 % 1024,4 hPa 0,0 l/m 0,8 km/h (0 Bft) S-SW 202 4,7 C 28,4 C 2,6 km/h (1 Bft)
12.06.2013 17:10 20,7 C 34 % 1024,4 hPa 0,0 l/m 1,4 km/h (1 Bft) O-NO 67 4,3 C 28,4 C 2,1 km/h (1 Bft)
12.06.2013 17:15 20,8 C 37 % 1024,4 hPa 0,0 l/m 3,1 km/h (1 Bft) N 360 5,6 C 28,4 C 7,4 km/h (2 Bft)
12.06.2013 17:20 20,9 C 37 % 1024,6 hPa 0,0 l/m 3,4 km/h (1 Bft) W-NW 292 5,7 C 27,8 C 4,0 km/h (1 Bft)
12.06.2013 17:25 21,3 C 37 % 1024,6 hPa 0,0 l/m 3,7 km/h (1 Bft) N-NW 337 6,0 C 27,7 C 8,7 km/h (2 Bft)
12.06.2013 17:30 20,5 C 38 % 1024,6 hPa 0,0 l/m 4,3 km/h (1 Bft) O 90 5,7 C 26,9 C 6,4 km/h (2 Bft)
12.06.2013 17:35 20,5 C 39 % 1024,6 hPa 0,0 l/m 4,7 km/h (1 Bft) NW 315 6,1 C 25,2 C 4,5 km/h (1 Bft)
12.06.2013 17:40 20,3 C 40 % 1025,0 hPa 0,0 l/m 3,9 km/h (1 Bft) NO 45 6,3 C 24,4 C 3,4 km/h (1 Bft)
12.06.2013 17:45 20,3 C 39 % 1025,0 hPa 0,0 l/m 3,1 km/h (1 Bft) N-NO 22 5,9 C 23,6 C 3,5 km/h (1 Bft)
12.06.2013 17:50 20,6 C 41 % 1025,0 hPa 0,0 l/m 1,8 km/h (1 Bft) W-NW 292 6,9 C 24,0 C 4,0 km/h (1 Bft)
12.06.2013 17:55 20,2 C 40 % 1025,0 hPa 0,0 l/m 2,7 km/h (1 Bft) W-NW 292 6,2 C 24,7 C 6,1 km/h (2 Bft)
12.06.2013 18:00 19,7 C 43 % 1024,5 hPa 0,0 l/m 3,9 km/h (1 Bft) N-NW 337 6,8 C 23,7 C 5,0 km/h (1 Bft)
12.06.2013 18:05 19,6 C 45 % 1024,5 hPa 0,0 l/m 3,5 km/h (1 Bft) N 360 7,3 C 22,9 C 3,5 km/h (1 Bft)
12.06.2013 18:10 19,9 C 46 % 1024,5 hPa 0,0 l/m 2,7 km/h (1 Bft) N-NO 22 7,9 C 23,4 C 3,9 km/h (1 Bft)
12.06.2013 18:15 20,4 C 43 % 1024,5 hPa 0,0 l/m 3,2 km/h (1 Bft) W-NW 292 7,4 C 24,9 C 4,7 km/h (1 Bft)
12.06.2013 18:20 20,6 C 42 % 1024,2 hPa 0,0 l/m 3,7 km/h (1 Bft) NW 315 7,2 C 25,7 C 4,8 km/h (1 Bft)
12.06.2013 18:25 20,8 C 42 % 1024,2 hPa 0,0 l/m 2,9 km/h (1 Bft) NW 315 7,4 C 26,7 C 2,4 km/h (1 Bft)
12.06.2013 18:30 20,3 C 42 % 1024,2 hPa 0,0 l/m 2,6 km/h (1 Bft) N-NW 337 7,0 C 25,8 C 4,5 km/h (1 Bft)
12.06.2013 18:35 20,2 C 42 % 1024,2 hPa 0,0 l/m 2,4 km/h (1 Bft) W-NW 292 6,9 C 24,7 C 1,9 km/h (1 Bft)
12.06.2013 18:40 20,3 C 43 % 1023,8 hPa 0,0 l/m 1,8 km/h (1 Bft) O-SO 112 7,3 C 25,4 C 2,7 km/h (1 Bft)
12.06.2013 18:45 20,3 C 43 % 1023,8 hPa 0,0 l/m 0,5 km/h (0 Bft) N-NW 337 7,3 C 26,9 C 2,9 km/h (1 Bft)
12.06.2013 18:50 20,0 C 43 % 1023,8 hPa 0,0 l/m 0,5 km/h (0 Bft) N 360 7,0 C 27,4 C 3,4 km/h (1 Bft)
12.06.2013 18:55 20,2 C 42 % 1023,8 hPa 0,0 l/m 1,8 km/h (1 Bft) W-NW 292 6,9 C 27,0 C 4,0 km/h (1 Bft)
12.06.2013 19:00 20,0 C 41 % 1023,6 hPa 0,0 l/m 2,6 km/h (1 Bft) N 360 6,3 C 26,7 C 5,1 km/h (1 Bft)
12.06.2013 19:05 19,2 C 42 % 1023,6 hPa 0,0 l/m 3,1 km/h (1 Bft) W-NW 292 6,0 C 24,8 C 7,1 km/h (2 Bft)
12.06.2013 19:10 19,0 C 46 % 1023,6 hPa 0,0 l/m 3,2 km/h (1 Bft) N-NO 22 7,1 C 23,5 C 2,6 km/h (1 Bft)
12.06.2013 19:15 18,7 C 46 % 1023,6 hPa 0,0 l/m 2,1 km/h (1 Bft) NO 45 6,8 C 23,2 C 1,9 km/h (1 Bft)
12.06.2013 19:20 18,3 C 46 % 1023,4 hPa 0,0 l/m 1,3 km/h (1 Bft) O 90 6,5 C 22,3 C 3,1 km/h (1 Bft)
12.06.2013 19:25 17,9 C 47 % 1023,4 hPa 0,0 l/m 2,1 km/h (1 Bft) NO 45 6,4 C 20,8 C 2,4 km/h (1 Bft)
12.06.2013 19:30 17,8 C 48 % 1023,4 hPa 0,0 l/m 2,6 km/h (1 Bft) O 90 6,6 C 20,4 C 3,4 km/h (1 Bft)
12.06.2013 19:35 17,6 C 49 % 1023,4 hPa 0,0 l/m 2,6 km/h (1 Bft) O 90 6,8 C 20,2 C 4,0 km/h (1 Bft)
12.06.2013 19:40 17,5 C 49 % 1023,5 hPa 0,0 l/m 2,7 km/h (1 Bft) NO 45 6,7 C 19,8 C 3,4 km/h (1 Bft)
12.06.2013 19:45 17,5 C 50 % 1023,5 hPa 0,0 l/m 2,6 km/h (1 Bft) O 90 7,0 C 19,7 C 2,9 km/h (1 Bft)
12.06.2013 19:50 17,5 C 50 % 1023,5 hPa 0,0 l/m 2,6 km/h (1 Bft) O-NO 67 7,0 C 19,5 C 3,7 km/h (1 Bft)
12.06.2013 19:55 17,4 C 50 % 1023,5 hPa 0,0 l/m 2,9 km/h (1 Bft) O 90 6,9 C 19,3 C 3,9 km/h (1 Bft)
12.06.2013 20:00 17,2 C 50 % 1023,6 hPa 0,0 l/m 3,2 km/h (1 Bft) NO 45 6,7 C 19,0 C 3,5 km/h (1 Bft)
12.06.2013 20:05 17,3 C 52 % 1023,6 hPa 0,0 l/m 2,9 km/h (1 Bft) O 90 7,3 C 19,4 C 2,6 km/h (1 Bft)
12.06.2013 20:10 17,2 C 51 % 1023,6 hPa 0,0 l/m 2,7 km/h (1 Bft) NO 45 7,0 C 19,8 C 3,1 km/h (1 Bft)
12.06.2013 20:15 16,7 C 53 % 1023,6 hPa 0,0 l/m 2,4 km/h (1 Bft) O 90 7,1 C 18,9 C 3,5 km/h (1 Bft)
12.06.2013 20:20 16,6 C 54 % 1023,6 hPa 0,0 l/m 2,6 km/h (1 Bft) NO 45 7,3 C 18,4 C 3,2 km/h (1 Bft)
12.06.2013 20:25 16,6 C 54 % 1023,6 hPa 0,0 l/m 2,4 km/h (1 Bft) O 90 7,3 C 19,1 C 2,6 km/h (1 Bft)
12.06.2013 20:30 16,4 C 54 % 1023,6 hPa 0,0 l/m 2,4 km/h (1 Bft) O 90 7,1 C 19,2 C 2,3 km/h (1 Bft)
12.06.2013 20:35 15,9 C 56 % 1023,6 hPa 0,0 l/m 2,6 km/h (1 Bft) O-NO 67 7,1 C 18,4 C 3,4 km/h (1 Bft)
12.06.2013 20:40 15,6 C 56 % 1023,4 hPa 0,0 l/m 2,7 km/h (1 Bft) NO 45 6,9 C 17,7 C 4,3 km/h (1 Bft)
12.06.2013 20:45 15,1 C 58 % 1023,4 hPa 0,0 l/m 2,9 km/h (1 Bft) O-SO 112 6,9 C 16,9 C 2,9 km/h (1 Bft)
12.06.2013 20:50 14,9 C 59 % 1023,4 hPa 0,0 l/m 2,9 km/h (1 Bft) O 90 7,0 C 16,4 C 3,5 km/h (1 Bft)
12.06.2013 20:55 14,7 C 60 % 1023,4 hPa 0,0 l/m 3,4 km/h (1 Bft) O 90 7,0 C 15,5 C 4,3 km/h (1 Bft)
12.06.2013 21:00 14,5 C 64 % 1023,6 hPa 0,0 l/m 3,9 km/h (1 Bft) O 90 7,8 C 15,0 C 4,3 km/h (1 Bft)
12.06.2013 21:05 13,9 C 64 % 1023,6 hPa 0,0 l/m 4,2 km/h (1 Bft) O 90 7,2 C 14,2 C 4,5 km/h (1 Bft)
12.06.2013 21:10 13,4 C 67 % 1023,6 hPa 0,0 l/m 3,7 km/h (1 Bft) O 90 7,4 C 13,8 C 3,5 km/h (1 Bft)
12.06.2013 21:15 13,2 C 68 % 1023,6 hPa 0,0 l/m 3,5 km/h (1 Bft) O 90 7,4 C 13,3 C 4,2 km/h (1 Bft)
12.06.2013 21:20 12,8 C 70 % 1023,7 hPa 0,0 l/m 3,4 km/h (1 Bft) O 90 7,5 C 13,0 C 3,4 km/h (1 Bft)
12.06.2013 21:25 12,6 C 73 % 1023,7 hPa 0,0 l/m 3,1 km/h (1 Bft) O-NO 67 7,9 C 12,7 C 4,5 km/h (1 Bft)
12.06.2013 21:30 12,7 C 73 % 1023,7 hPa 0,0 l/m 3,4 km/h (1 Bft) O 90 8,0 C 12,6 C 3,7 km/h (1 Bft)
12.06.2013 21:35 12,3 C 75 % 1023,7 hPa 0,0 l/m 3,2 km/h (1 Bft) O-SO 112 8,0 C 12,3 C 2,9 km/h (1 Bft)
12.06.2013 21:40 11,9 C 75 % 1023,8 hPa 0,0 l/m 2,6 km/h (1 Bft) O-SO 112 7,6 C 12,1 C 2,3 km/h (1 Bft)
12.06.2013 21:45 11,8 C 76 % 1023,8 hPa 0,0 l/m 2,1 km/h (1 Bft) O 90 7,7 C 11,7 C 1,6 km/h (1 Bft)
12.06.2013 21:50 11,7 C 76 % 1023,8 hPa 0,0 l/m 1,6 km/h (1 Bft) O-SO 112 7,6 C 11,6 C 2,3 km/h (1 Bft)
12.06.2013 21:55 11,5 C 76 % 1023,8 hPa 0,0 l/m 1,3 km/h (1 Bft) O-SO 112 7,4 C 11,3 C 0,0 km/h (0 Bft)
12.06.2013 22:00 11,3 C 76 % 1023,8 hPa 0,0 l/m 1,1 km/h (1 Bft) O 90 7,2 C 11,2 C 1,8 km/h (1 Bft)
12.06.2013 22:05 11,2 C 76 % 1023,8 hPa 0,0 l/m 0,6 km/h (0 Bft) O-SO 112 7,1 C 11,0 C 1,8 km/h (1 Bft)
12.06.2013 22:10 11,2 C 76 % 1023,8 hPa 0,0 l/m 0,5 km/h (0 Bft) O-SO 112 7,1 C 11,0 C 1,8 km/h (1 Bft)
12.06.2013 22:15 11,1 C 76 % 1023,8 hPa 0,0 l/m 0,5 km/h (0 Bft) O-SO 112 7,0 C 10,9 C 2,1 km/h (1 Bft)
12.06.2013 22:20 11,1 C 75 % 1023,9 hPa 0,0 l/m 0,3 km/h (0 Bft) O-NO 67 6,8 C 10,8 C 0,0 km/h (0 Bft)
12.06.2013 22:25 11,0 C 75 % 1023,9 hPa 0,0 l/m 0,2 km/h (0 Bft) O 90 6,7 C 10,7 C 0,0 km/h (0 Bft)
12.06.2013 22:30 10,9 C 75 % 1023,9 hPa 0,0 l/m 0,2 km/h (0 Bft) S-SO 157 6,6 C 10,5 C 0,0 km/h (0 Bft)
12.06.2013 22:35 10,8 C 76 % 1023,9 hPa 0,0 l/m 0,0 km/h (0 Bft) S 180 6,7 C 10,5 C 0,0 km/h (0 Bft)
12.06.2013 22:40 10,7 C 76 % 1024,0 hPa 0,0 l/m 0,0 km/h (0 Bft) O-SO 112 6,6 C 10,4 C 0,0 km/h (0 Bft)
12.06.2013 22:45 10,6 C 76 % 1024,0 hPa 0,0 l/m 0,0 km/h (0 Bft) O-SO 112 6,5 C 10,2 C 0,0 km/h (0 Bft)
12.06.2013 22:50 10,6 C 76 % 1024,0 hPa 0,0 l/m 0,0 km/h (0 Bft) N 360 6,5 C 10,2 C 0,0 km/h (0 Bft)
12.06.2013 22:55 10,6 C 76 % 1024,0 hPa 0,0 l/m 0,3 km/h (0 Bft) O-SO 112 6,5 C 10,3 C 0,0 km/h (0 Bft)
12.06.2013 23:00 10,5 C 76 % 1023,9 hPa 0,0 l/m 0,3 km/h (0 Bft) SO 135 6,5 C 10,3 C 0,0 km/h (0 Bft)
12.06.2013 23:05 10,5 C 76 % 1023,9 hPa 0,0 l/m 0,0 km/h (0 Bft) SO 135 6,5 C 10,3 C 0,0 km/h (0 Bft)
12.06.2013 23:10 10,4 C 76 % 1023,9 hPa 0,0 l/m 0,2 km/h (0 Bft) S 180 6,4 C 10,2 C 0,0 km/h (0 Bft)
12.06.2013 23:15 10,3 C 76 % 1023,9 hPa 0,0 l/m 0,2 km/h (0 Bft) SO 135 6,3 C 10,3 C 0,0 km/h (0 Bft)
12.06.2013 23:20 10,3 C 76 % 1023,8 hPa 0,0 l/m 0,2 km/h (0 Bft) S-SO 157 6,3 C 10,3 C 0,0 km/h (0 Bft)
12.06.2013 23:25 10,2 C 76 % 1023,8 hPa 0,0 l/m 0,2 km/h (0 Bft) W-SW 247 6,2 C 10,3 C 0,0 km/h (0 Bft)
12.06.2013 23:30 10,1 C 76 % 1023,8 hPa 0,0 l/m 0,2 km/h (0 Bft) S 180 6,1 C 10,3 C 0,0 km/h (0 Bft)
12.06.2013 23:35 10,1 C 76 % 1023,8 hPa 0,0 l/m 0,0 km/h (0 Bft) SO 135 6,1 C 10,1 C 1,8 km/h (1 Bft)
12.06.2013 23:40 10,1 C 77 % 1023,8 hPa 0,0 l/m 0,0 km/h (0 Bft) S 180 6,3 C 10,0 C 0,0 km/h (0 Bft)
12.06.2013 23:45 10,0 C 77 % 1023,8 hPa 0,0 l/m 0,3 km/h (0 Bft) S-SW 202 6,2 C 10,0 C 0,0 km/h (0 Bft)
12.06.2013 23:50 9,9 C 77 % 1023,8 hPa 0,0 l/m 0,3 km/h (0 Bft) S 180 6,1 C 10,0 C 0,0 km/h (0 Bft)
12.06.2013 23:55 9,8 C 77 % 1023,8 hPa 0,0 l/m 0,2 km/h (0 Bft) O 90 6,0 C 10,0 C 0,0 km/h (0 Bft)
_ Min-Zeit 05:40 13:30 01:15 - 23:40 - - 17:10 05:20 23:55
Minimum _ 8,1 C 30 % 1022,0 hPa - 0,0 km/h (0 Bft) - - 4,3 C 8,0 C 0,0 km/h (0 Bft)
_ Max-Zeit 13:15 06:00 14:15 23:55 14:45 - - 08:30 17:15 14:50
Maximum _ 24,3 C 96 % 1025,2 hPa 0,0 l/m 5,0 km/h
W-NW (1 Bft)
- - 16,1 C 28,4 C 11,4 km/h
N-NW (2 Bft)
Durchschnitt _ 16,3 C 64 % 1023,7 hPa #0,0 l/m 1,8 km/h (1 Bft) O - 8,3 C 17,9 C 2,6 km/h (1 Bft)